Terminal Aerodrome Forecast
Issued by NWS Melbourne, FL

Home | Current Version | Previous Version | Text Only | Print | Product List | Glossary On
Versions: 1 2 3 4 5 6 7 8 9 10 11 12 13 14 15 16 17 18 19 20
000
FTUS42 KMLB 060531
TAFMLB
TAF
KMLB 060531Z 0606/0706 21003KT P6SM OVC250
     FM061400 18007KT P6SM SCT025 SCT250
     FM061700 12009KT P6SM VCTS SCT035CB BKN250
      TEMPO 0617/0619 3SM TSRA BKN030CB
     FM070000 15006KT P6SM SCT030 BKN250=

USA.gov is the U.S. government's official web portal to all federal, state and local government web resources and services.